Time;durP1;ratioP1;P1;durP2;ratioP2;P2;SDS_P1;SDS_P2;PMS_P1;PMS_P2;Temp;Humidity;BMP_temperature;BMP_pressure;BME280_temperature;BME280_humidity;BME280_pressure;Samples;Min_cycle;Max_cycle;Signal;HPM_P1;HPM_P2
2023/09/28 00:01:36;;;;;;;0.20;0.20;;;21.40;55.10;;;;;;6254222;23;20159;-83
2023/09/28 00:04:07;;;;;;;0.20;0.20;;;21.30;55.00;;;;;;6218938;23;20176;-86
2023/09/28 00:06:35;;;;;;;0.60;0.60;;;21.30;55.10;;;;;;6231692;23;20477;-85
2023/09/28 00:09:03;;;;;;;0.70;0.40;;;21.30;55.20;;;;;;6242678;23;20170;-84
2023/09/28 00:11:31;;;;;;;0.20;0.20;;;21.30;56.00;;;;;;6242310;23;20166;-85
2023/09/28 00:13:59;;;;;;;0.60;0.40;;;21.20;55.50;;;;;;6243016;23;20174;-86
2023/09/28 00:16:27;;;;;;;0.20;0.20;;;21.20;55.70;;;;;;6242204;23;20206;-86
2023/09/28 00:18:56;;;;;;;0.50;0.50;;;21.20;55.70;;;;;;6244622;23;20171;-84
2023/09/28 00:21:25;;;;;;;0.73;0.47;;;21.20;55.70;;;;;;6241189;23;20249;-86
2023/09/28 00:23:54;;;;;;;0.65;0.60;;;21.10;55.60;;;;;;6242747;23;20167;-85
2023/09/28 00:26:22;;;;;;;0.77;0.77;;;21.20;55.70;;;;;;6243274;23;20182;-85
2023/09/28 00:28:51;;;;;;;0.30;0.30;;;21.10;55.80;;;;;;6245322;23;20177;-85
2023/09/28 00:31:19;;;;;;;0.40;0.40;;;21.10;55.90;;;;;;6241852;23;20190;-86
2023/09/28 00:33:48;;;;;;;0.30;0.30;;;21.10;55.90;;;;;;6243394;23;20175;-86
2023/09/28 00:36:15;;;;;;;0.23;0.20;;;21.10;56.00;;;;;;6242841;23;20201;-84
2023/09/28 00:38:47;;;;;;;0.32;0.32;;;21.00;55.90;;;;;;6243547;23;20174;-85
2023/09/28 00:41:15;;;;;;;1.10;0.80;;;21.00;55.80;;;;;;6240732;23;20226;-84
2023/09/28 00:43:44;;;;;;;0.20;0.20;;;21.00;55.90;;;;;;6216148;23;20173;-86
2023/09/28 00:46:16;;;;;;;0.30;0.30;;;21.00;55.90;;;;;;6241540;23;20177;-85
2023/09/28 00:48:54;;;;;;;0.40;0.40;;;21.00;55.80;;;;;;6243634;23;20159;-86
2023/09/28 00:51:25;;;;;;;0.43;0.43;;;21.00;55.80;;;;;;6243325;23;20699;-83
2023/09/28 00:53:56;;;;;;;0.27;0.27;;;20.90;55.90;;;;;;6244005;23;20159;-85
2023/09/28 00:56:24;;;;;;;0.40;0.40;;;20.90;55.80;;;;;;6242297;23;20192;-86
2023/09/28 00:58:56;;;;;;;1.70;0.50;;;20.90;55.80;;;;;;6243724;23;20169;-86
2023/09/28 01:01:27;;;;;;;0.20;0.20;;;20.90;56.10;;;;;;6243010;23;20158;-86
2023/09/28 01:03:56;;;;;;;0.20;0.20;;;20.90;56.00;;;;;;6242208;23;20159;-83
2023/09/28 01:06:24;;;;;;;0.20;0.20;;;20.90;56.10;;;;;;6215477;23;20177;-86
2023/09/28 01:08:54;;;;;;;1.07;0.83;;;20.80;56.00;;;;;;6243778;23;20167;-86
2023/09/28 01:11:22;;;;;;;0.80;0.80;;;20.80;56.00;;;;;;6216747;23;20170;-86
2023/09/28 01:13:52;;;;;;;1.30;0.40;;;20.90;56.10;;;;;;6241668;23;20172;-85
2023/09/28 01:16:20;;;;;;;0.20;0.20;;;20.80;56.00;;;;;;6243489;23;20158;-86
2023/09/28 01:18:49;;;;;;;0.20;0.20;;;20.80;56.00;;;;;;6244499;23;20167;-85
2023/09/28 01:21:16;;;;;;;0.40;0.30;;;20.90;56.00;;;;;;6242632;23;20189;-85
2023/09/28 01:23:47;;;;;;;0.30;0.30;;;20.90;56.00;;;;;;6244017;23;20166;-86
2023/09/28 01:26:15;;;;;;;0.30;0.30;;;20.90;56.10;;;;;;6242602;23;20164;-85
2023/09/28 01:28:43;;;;;;;0.50;0.50;;;20.90;56.10;;;;;;6241831;23;20632;-86
2023/09/28 01:31:11;;;;;;;0.30;0.30;;;20.80;56.20;;;;;;6242979;23;20170;-85
2023/09/28 01:33:39;;;;;;;0.20;0.20;;;20.80;56.20;;;;;;6244050;23;20203;-85
2023/09/28 01:36:07;;;;;;;0.60;0.60;;;20.80;56.30;;;;;;6240267;23;20245;-85
2023/09/28 01:38:41;;;;;;;0.40;0.40;;;20.80;56.40;;;;;;6243121;23;20194;-84
2023/09/28 01:41:11;;;;;;;0.67;0.50;;;20.80;56.30;;;;;;6241378;23;20198;-85
2023/09/28 01:43:40;;;;;;;0.40;0.40;;;20.80;56.30;;;;;;6242375;23;20533;-84
2023/09/28 01:46:09;;;;;;;0.20;0.20;;;20.80;56.30;;;;;;6241726;23;20224;-85
2023/09/28 01:48:38;;;;;;;0.30;0.30;;;20.70;56.30;;;;;;6244584;23;20174;-85
2023/09/28 01:51:05;;;;;;;0.67;0.37;;;20.80;56.30;;;;;;6242489;23;20177;-85
2023/09/28 01:53:34;;;;;;;0.63;0.63;;;20.70;56.60;;;;;;6241954;23;20188;-86
2023/09/28 01:56:04;;;;;;;0.30;0.30;;;20.70;56.60;;;;;;6214443;23;20608;-85
2023/09/28 01:58:34;;;;;;;0.40;0.40;;;20.70;56.80;;;;;;6240721;23;20190;-83
2023/09/28 02:01:02;;;;;;;0.20;0.20;;;20.70;56.80;;;;;;6239784;23;20177;-86
2023/09/28 02:03:31;;;;;;;0.30;0.30;;;20.70;56.70;;;;;;6242113;23;20206;-85
2023/09/28 02:05:58;;;;;;;0.40;0.40;;;20.70;56.60;;;;;;6241914;23;20170;-86
2023/09/28 02:08:26;;;;;;;0.30;0.30;;;20.70;56.70;;;;;;6243631;23;20249;-83
2023/09/28 02:10:54;;;;;;;0.43;0.37;;;20.70;56.70;;;;;;6241284;23;20503;-85
2023/09/28 02:13:23;;;;;;;0.97;0.50;;;20.70;56.70;;;;;;6242546;23;20943;-86
2023/09/28 02:15:52;;;;;;;0.40;0.40;;;20.70;56.80;;;;;;6242133;23;20171;-85
2023/09/28 02:18:20;;;;;;;0.63;0.40;;;20.70;57.10;;;;;;6241687;23;20190;-86
2023/09/28 02:20:48;;;;;;;1.40;1.20;;;20.70;57.20;;;;;;6240718;23;20182;-85
2023/09/28 02:23:16;;;;;;;0.30;0.30;;;20.70;57.20;;;;;;6243408;23;20225;-85
2023/09/28 02:25:44;;;;;;;1.43;0.63;;;20.70;57.30;;;;;;6242795;23;20174;-84
2023/09/28 02:28:13;;;;;;;0.30;0.30;;;20.70;57.30;;;;;;6245392;23;20167;-85
2023/09/28 02:30:40;;;;;;;0.60;0.40;;;20.70;57.30;;;;;;6240749;23;20300;-84
2023/09/28 02:33:10;;;;;;;0.40;0.40;;;20.70;57.10;;;;;;6243491;23;20177;-85
2023/09/28 02:35:38;;;;;;;1.07;0.70;;;20.70;57.10;;;;;;6231440;23;20215;-84
2023/09/28 02:38:06;;;;;;;0.50;0.50;;;20.70;57.20;;;;;;6244195;23;20198;-84
2023/09/28 02:40:34;;;;;;;0.60;0.60;;;20.70;57.30;;;;;;6243747;23;20253;-84
2023/09/28 02:43:04;;;;;;;0.30;0.30;;;20.70;57.40;;;;;;6241536;23;20237;-84
2023/09/28 02:45:32;;;;;;;0.40;0.40;;;20.60;57.30;;;;;;6244765;23;20181;-84
2023/09/28 02:48:00;;;;;;;0.33;0.33;;;20.70;57.50;;;;;;6246133;23;20213;-84
2023/09/28 02:50:29;;;;;;;0.40;0.40;;;20.60;57.30;;;;;;6244001;23;20620;-83
2023/09/28 02:52:58;;;;;;;0.30;0.30;;;20.60;57.50;;;;;;6244426;23;20174;-85
2023/09/28 02:55:25;;;;;;;0.67;0.47;;;20.60;57.50;;;;;;6245145;23;20167;-84
2023/09/28 02:57:54;;;;;;;0.40;0.40;;;20.60;57.40;;;;;;6243408;23;20198;-85
2023/09/28 03:00:24;;;;;;;0.50;0.50;;;20.60;57.50;;;;;;6243698;23;20174;-84
2023/09/28 03:02:56;;;;;;;0.47;0.47;;;20.60;57.60;;;;;;6244030;23;20162;-85
2023/09/28 03:05:26;;;;;;;0.93;0.70;;;20.60;57.90;;;;;;6240492;23;20166;-83
2023/09/28 03:07:57;;;;;;;3.23;1.03;;;20.60;57.80;;;;;;6244202;23;20173;-87
2023/09/28 03:10:24;;;;;;;1.60;0.60;;;20.60;57.70;;;;;;6242327;23;20238;-84
2023/09/28 03:12:57;;;;;;;2.27;1.20;;;20.60;57.80;;;;;;6241926;23;20886;-85
2023/09/28 03:15:24;;;;;;;0.73;0.73;;;20.60;58.00;;;;;;6243471;23;20502;-84
2023/09/28 03:17:55;;;;;;;0.70;0.70;;;20.60;58.00;;;;;;6243074;23;20190;-84
2023/09/28 03:20:25;;;;;;;0.50;0.50;;;20.60;57.90;;;;;;6243855;23;20596;-83
2023/09/28 03:22:55;;;;;;;1.90;0.67;;;20.60;58.00;;;;;;6239218;23;20167;-84
2023/09/28 03:25:22;;;;;;;0.60;0.60;;;20.60;58.00;;;;;;6240045;23;20174;-83
2023/09/28 03:27:52;;;;;;;0.47;0.47;;;20.60;58.00;;;;;;6241335;23;20181;-86
2023/09/28 03:30:21;;;;;;;0.57;0.57;;;20.60;57.90;;;;;;6241756;23;20656;-85
2023/09/28 03:32:49;;;;;;;1.83;0.93;;;20.60;57.90;;;;;;6239936;23;20609;-84
2023/09/28 03:35:18;;;;;;;0.53;0.43;;;20.60;58.00;;;;;;6242554;23;20183;-84
2023/09/28 03:37:48;;;;;;;0.30;0.30;;;20.50;58.00;;;;;;6242116;23;20191;-85
2023/09/28 03:40:18;;;;;;;0.60;0.50;;;20.50;58.10;;;;;;6241928;23;20171;-85
2023/09/28 03:42:49;;;;;;;0.77;0.77;;;20.50;58.10;;;;;;6241647;23;20155;-83
2023/09/28 03:45:20;;;;;;;0.97;0.40;;;20.50;58.00;;;;;;6242109;23;20827;-85
2023/09/28 03:47:50;;;;;;;0.47;0.47;;;20.50;58.00;;;;;;6242885;23;20190;-86
2023/09/28 03:50:21;;;;;;;0.80;0.37;;;20.50;58.00;;;;;;6243786;23;20167;-85
2023/09/28 03:52:50;;;;;;;0.63;0.40;;;20.50;58.10;;;;;;6242214;23;20159;-83
2023/09/28 03:55:22;;;;;;;1.43;0.97;;;20.50;58.00;;;;;;6243455;23;20276;-84
2023/09/28 03:57:52;;;;;;;1.13;0.93;;;20.50;58.10;;;;;;6240609;23;20624;-85
2023/09/28 04:00:21;;;;;;;2.93;0.50;;;20.50;58.10;;;;;;6242713;23;20655;-83
2023/09/28 04:02:51;;;;;;;0.20;0.20;;;20.50;58.30;;;;;;6243990;23;20200;-88
2023/09/28 04:05:23;;;;;;;0.60;0.60;;;20.50;58.30;;;;;;6243067;23;20304;-84
2023/09/28 04:07:53;;;;;;;0.40;0.40;;;20.50;58.20;;;;;;6244596;23;20711;-84
2023/09/28 04:10:23;;;;;;;0.40;0.40;;;20.40;58.20;;;;;;6242888;23;20163;-83
2023/09/28 04:12:53;;;;;;;1.00;0.73;;;20.40;59.00;;;;;;6242391;23;20628;-86
2023/09/28 04:15:23;;;;;;;1.03;0.93;;;20.40;58.20;;;;;;6241003;23;20167;-83
2023/09/28 04:17:52;;;;;;;1.13;1.10;;;20.40;58.30;;;;;;6241553;23;20201;-84
2023/09/28 04:20:21;;;;;;;0.70;0.70;;;20.40;58.40;;;;;;6241475;23;20166;-85
2023/09/28 04:22:50;;;;;;;0.47;0.47;;;20.30;58.30;;;;;;6215095;23;20475;-84
2023/09/28 04:25:21;;;;;;;1.23;1.03;;;20.30;58.30;;;;;;6243230;23;20194;-84
2023/09/28 04:27:51;;;;;;;2.07;1.20;;;20.30;58.30;;;;;;6242620;23;20606;-83
2023/09/28 04:30:20;;;;;;;0.30;0.30;;;20.30;58.30;;;;;;6241324;23;20191;-85
2023/09/28 04:32:51;;;;;;;1.33;0.93;;;20.30;58.30;;;;;;6241700;23;20620;-84
2023/09/28 04:35:21;;;;;;;0.53;0.43;;;20.30;58.50;;;;;;6241546;23;20177;-83
2023/09/28 04:37:49;;;;;;;0.87;0.73;;;20.30;58.40;;;;;;6240832;23;20170;-83
2023/09/28 04:40:24;;;;;;;1.87;0.47;;;20.30;58.50;;;;;;6240785;23;20193;-84
2023/09/28 04:42:55;;;;;;;1.37;1.27;;;20.30;58.60;;;;;;6242550;23;20906;-86
2023/09/28 04:45:23;;;;;;;4.90;1.07;;;20.30;58.60;;;;;;6242860;23;20202;-82
2023/09/28 04:47:51;;;;;;;0.40;0.40;;;20.30;58.60;;;;;;6242653;23;20627;-83
2023/09/28 04:50:20;;;;;;;1.43;1.07;;;20.40;58.60;;;;;;6242011;23;20166;-84
2023/09/28 04:52:49;;;;;;;1.63;0.97;;;20.40;59.20;;;;;;6242586;23;20170;-83
2023/09/28 04:55:17;;;;;;;2.87;1.27;;;20.40;58.60;;;;;;6244251;23;20179;-83
2023/09/28 04:57:47;;;;;;;0.67;0.67;;;20.40;58.80;;;;;;6242225;23;20173;-84
2023/09/28 05:00:17;;;;;;;0.63;0.50;;;20.40;59.00;;;;;;6238457;23;20285;-83
2023/09/28 05:02:47;;;;;;;2.33;1.37;;;20.40;59.10;;;;;;6240076;23;20241;-84
2023/09/28 05:05:16;;;;;;;1.10;1.03;;;20.40;59.00;;;;;;6216197;23;20464;-83
2023/09/28 05:07:46;;;;;;;1.17;0.77;;;20.50;58.90;;;;;;6242309;23;20174;-81
2023/09/28 05:10:17;;;;;;;1.97;1.10;;;20.50;59.10;;;;;;6238964;23;20173;-84
2023/09/28 05:12:46;;;;;;;0.40;0.40;;;20.50;59.10;;;;;;6214679;23;20178;-86
2023/09/28 05:22:10;;;;;;;0.87;0.77;;;20.60;58.90;;;;;;6173422;23;20174;-85
2023/09/28 08:51:42;;;;;;;0.95;0.85;;;26.20;44.20;;;;;;6226526;22;20177;-83
2023/09/28 08:54:13;;;;;;;0.30;0.30;;;26.30;44.00;;;;;;6209619;23;20594;-82
2023/09/28 08:56:42;;;;;;;0.90;0.60;;;26.40;44.10;;;;;;6209274;23;20203;-83
2023/09/28 08:59:12;;;;;;;0.30;0.30;;;26.50;44.20;;;;;;6212395;23;20202;-84
2023/09/28 09:01:41;;;;;;;0.63;0.63;;;26.60;44.40;;;;;;6186626;23;20190;-85
2023/09/28 09:04:11;;;;;;;1.95;0.70;;;26.60;43.60;;;;;;6212550;23;20213;-83
2023/09/28 09:06:41;;;;;;;0.68;0.65;;;26.70;43.80;;;;;;6208310;23;20481;-82
2023/09/28 09:09:15;;;;;;;3.00;0.50;;;26.80;43.70;;;;;;6212331;23;20605;-84
2023/09/28 09:11:50;;;;;;;0.20;0.20;;;26.80;43.70;;;;;;6212019;23;20214;-85
2023/09/28 09:14:20;;;;;;;0.30;0.30;;;26.90;44.00;;;;;;6211080;23;20170;-82
2023/09/28 09:16:49;;;;;;;0.40;0.30;;;27.00;43.70;;;;;;6210902;23;20174;-85
2023/09/28 09:19:18;;;;;;;1.33;0.77;;;27.00;42.70;;;;;;6212156;23;20222;-84
2023/09/28 09:21:49;;;;;;;0.30;0.30;;;27.10;41.80;;;;;;6210654;23;20194;-84
2023/09/28 09:24:18;;;;;;;0.68;0.40;;;27.10;41.40;;;;;;6211025;23;20167;-78
2023/09/28 09:26:51;;;;;;;0.20;0.20;;;27.10;41.20;;;;;;6213180;23;20270;-82
2023/09/28 09:29:20;;;;;;;0.90;0.52;;;27.20;42.10;;;;;;6211975;23;20226;-85
2023/09/28 09:31:50;;;;;;;0.70;0.70;;;27.30;42.20;;;;;;6210010;23;20175;-80
2023/09/28 09:34:20;;;;;;;5.82;0.28;;;27.30;42.00;;;;;;6211001;23;20159;-84
2023/09/28 09:36:57;;;;;;;0.80;0.63;;;27.40;42.00;;;;;;6211110;23;20157;-88
2023/09/28 09:39:29;;;;;;;0.25;0.25;;;27.40;41.50;;;;;;6211447;23;20190;-86
2023/09/28 09:41:58;;;;;;;0.63;0.40;;;27.50;41.60;;;;;;6182993;23;20155;-83
2023/09/28 09:44:28;;;;;;;0.20;0.20;;;27.60;41.80;;;;;;6183370;23;20175;-85
2023/09/28 09:46:57;;;;;;;0.63;0.63;;;27.60;40.80;;;;;;6209804;23;20171;-90
2023/09/28 09:49:26;;;;;;;0.40;0.40;;;27.70;40.60;;;;;;6209145;23;20342;-85
2023/09/28 09:52:00;;;;;;;0.43;0.43;;;27.70;39.40;;;;;;6212847;23;20178;-86
2023/09/28 09:54:34;;;;;;;0.63;0.63;;;27.80;40.10;;;;;;6241441;23;20628;-84
2023/09/28 09:57:09;;;;;;;0.77;0.55;;;27.90;40.50;;;;;;6240989;23;20509;-83
2023/09/28 09:59:44;;;;;;;0.20;0.20;;;27.90;40.20;;;;;;6241171;23;20193;-87
2023/09/28 10:02:22;;;;;;;0.30;0.30;;;27.90;39.20;;;;;;6237832;23;20158;-93
2023/09/28 10:04:53;;;;;;;0.30;0.30;;;28.00;39.20;;;;;;6240782;23;20209;-86
2023/09/28 10:07:29;;;;;;;0.35;0.35;;;28.00;38.40;;;;;;6240970;23;20159;-85
2023/09/28 10:10:15;;;;;;;0.63;0.57;;;28.00;38.80;;;;;;6241806;23;20159;-85
2023/09/28 10:12:44;;;;;;;0.20;0.20;;;28.10;39.30;;;;;;6241095;23;20193;-87
2023/09/28 10:15:13;;;;;;;3.35;0.75;;;28.10;39.30;;;;;;6215881;23;20166;-91
2023/09/28 10:17:43;;;;;;;0.85;0.40;;;28.20;39.70;;;;;;6241021;23;20177;-87
2023/09/28 10:20:13;;;;;;;0.32;0.32;;;28.20;38.90;;;;;;6215420;23;20201;-87
2023/09/28 10:22:45;;;;;;;0.25;0.25;;;28.30;39.60;;;;;;6215909;23;20939;-89
2023/09/28 10:25:15;;;;;;;0.73;0.52;;;28.30;39.50;;;;;;6243166;23;20155;-92
2023/09/28 10:27:44;;;;;;;0.30;0.30;;;28.30;39.40;;;;;;6248141;23;20609;-93
2023/09/28 10:30:24;;;;;;;0.80;0.52;;;28.30;39.30;;;;;;6241980;23;20217;-86
2023/09/28 10:32:53;;;;;;;1.10;0.40;;;28.40;39.30;;;;;;6237133;23;20166;-83
2023/09/28 10:35:27;;;;;;;0.20;0.20;;;28.30;39.40;;;;;;6235955;23;20612;-84
2023/09/28 10:38:22;;;;;;;0.82;0.63;;;28.30;39.40;;;;;;6242215;23;20217;-83
2023/09/28 10:41:03;;;;;;;0.20;0.20;;;28.30;39.50;;;;;;6220769;23;20199;-89
2023/09/28 10:43:35;;;;;;;0.63;0.35;;;28.30;39.50;;;;;;6245420;23;20171;-87
2023/09/28 10:46:05;;;;;;;0.13;0.13;;;28.30;39.10;;;;;;6243381;23;20162;-84
2023/09/28 10:48:40;;;;;;;0.20;0.20;;;28.30;39.20;;;;;;6242918;23;20166;-83
2023/09/28 10:51:12;;;;;;;0.38;0.38;;;28.40;39.40;;;;;;6244852;23;20158;-87
2023/09/28 10:53:43;;;;;;;1.38;0.93;;;28.40;39.40;;;;;;6250676;23;20198;-96
2023/09/28 10:56:13;;;;;;;0.47;0.40;;;28.50;39.60;;;;;;6256809;23;20656;-95
2023/09/28 10:58:42;;;;;;;1.48;0.45;;;28.40;39.10;;;;;;6260537;23;20171;-93
2023/09/28 11:01:12;;;;;;;0.68;0.20;;;28.50;39.10;;;;;;6259168;23;20174;-95
2023/09/28 11:03:41;;;;;;;0.20;0.20;;;28.50;39.50;;;;;;6257858;23;20616;-95
2023/09/28 11:06:10;;;;;;;1.27;0.30;;;28.60;39.70;;;;;;6256001;23;20162;-96
2023/09/28 11:08:40;;;;;;;0.20;0.20;;;28.60;39.30;;;;;;6254545;23;20170;-92
2023/09/28 11:11:11;;;;;;;0.52;0.52;;;28.70;39.50;;;;;;6257420;23;20542;-92
2023/09/28 11:13:39;;;;;;;0.80;0.30;;;28.60;38.30;;;;;;6250161;23;20163;-88
2023/09/28 11:16:09;;;;;;;0.93;0.93;;;28.60;38.60;;;;;;6222582;23;20178;-92
2023/09/28 11:18:39;;;;;;;0.40;0.30;;;28.60;38.90;;;;;;6217696;23;20232;-86
2023/09/28 11:21:08;;;;;;;0.20;0.20;;;28.60;38.70;;;;;;6244664;23;20260;-87
2023/09/28 11:23:37;;;;;;;0.20;0.20;;;28.60;39.10;;;;;;6246405;23;20166;-91
2023/09/28 11:26:07;;;;;;;0.20;0.20;;;28.60;39.30;;;;;;6220463;23;20612;-88
2023/09/28 11:28:38;;;;;;;0.47;0.47;;;28.70;39.60;;;;;;6244978;23;20174;-86
2023/09/28 11:31:09;;;;;;;0.50;0.50;;;28.70;39.60;;;;;;6241414;23;20175;-90
2023/09/28 11:33:38;;;;;;;0.10;0.10;;;28.80;39.70;;;;;;6246384;23;20601;-90
2023/09/28 11:36:08;;;;;;;0.40;0.30;;;28.80;39.80;;;;;;6218882;23;20683;-94
2023/09/28 11:38:37;;;;;;;0.45;0.30;;;28.80;39.80;;;;;;6223403;23;20171;-95
2023/09/28 11:41:06;;;;;;;0.30;0.30;;;28.80;39.40;;;;;;6250028;23;20406;-90
2023/09/28 11:43:44;;;;;;;2.45;0.45;;;28.90;39.80;;;;;;6247066;23;20162;-93
2023/09/28 11:46:18;;;;;;;0.30;0.30;;;28.90;39.60;;;;;;6248761;23;20166;-91
2023/09/28 11:48:47;;;;;;;0.55;0.50;;;28.90;39.60;;;;;;6247248;23;20981;-89
2023/09/28 11:51:16;;;;;;;0.30;0.30;;;28.90;39.20;;;;;;6248445;23;20166;-89
2023/09/28 11:53:45;;;;;;;0.35;0.30;;;28.90;39.20;;;;;;6243801;23;20276;-89
2023/09/28 11:56:16;;;;;;;0.32;0.20;;;28.90;38.80;;;;;;6214964;23;20655;-88
2023/09/28 11:58:45;;;;;;;0.20;0.20;;;28.90;38.50;;;;;;6245537;23;20182;-87
2023/09/28 12:01:15;;;;;;;0.90;0.55;;;28.90;38.80;;;;;;6245567;23;20236;-87
2023/09/28 12:03:47;;;;;;;0.52;0.38;;;29.00;39.40;;;;;;6244532;23;20250;-89
2023/09/28 12:06:18;;;;;;;0.50;0.50;;;29.00;39.30;;;;;;6244262;23;20158;-86
2023/09/28 12:08:47;;;;;;;0.50;0.50;;;29.00;38.80;;;;;;6243721;23;20198;-89
2023/09/28 12:11:18;;;;;;;2.47;1.25;;;29.00;38.50;;;;;;6243612;23;20588;-90
2023/09/28 12:13:47;;;;;;;0.30;0.30;;;29.10;38.90;;;;;;6218525;23;20228;-88
2023/09/28 12:16:19;;;;;;;0.20;0.20;;;29.20;39.20;;;;;;6245507;23;20205;-88
2023/09/28 12:18:47;;;;;;;0.25;0.25;;;29.20;39.50;;;;;;6244772;23;20166;-89
2023/09/28 12:21:16;;;;;;;0.52;0.52;;;29.20;39.30;;;;;;6244126;23;20201;-89
2023/09/28 12:23:45;;;;;;;0.30;0.30;;;29.10;38.60;;;;;;6245176;23;20185;-87
2023/09/28 12:26:13;;;;;;;0.63;0.38;;;29.20;38.90;;;;;;6243614;23;20173;-87
2023/09/28 12:28:42;;;;;;;0.35;0.35;;;29.10;38.80;;;;;;6217909;23;20170;-86
2023/09/28 12:31:12;;;;;;;2.28;0.75;;;29.00;39.00;;;;;;6217899;23;20170;-87
2023/09/28 12:33:42;;;;;;;1.15;0.38;;;29.10;39.20;;;;;;6244543;23;20170;-88
2023/09/28 12:36:20;;;;;;;1.15;0.55;;;29.10;39.00;;;;;;6218339;23;20158;-89
2023/09/28 12:38:51;;;;;;;0.60;0.40;;;29.10;38.50;;;;;;6216940;23;20619;-89
2023/09/28 12:41:20;;;;;;;0.77;0.50;;;29.20;38.50;;;;;;6245332;23;20644;-89
2023/09/28 12:43:48;;;;;;;0.45;0.45;;;29.10;38.00;;;;;;6244913;23;20219;-90
2023/09/28 12:46:17;;;;;;;0.85;0.55;;;29.20;38.00;;;;;;6247083;23;20218;-91
2023/09/28 12:48:47;;;;;;;0.20;0.20;;;29.20;38.50;;;;;;6245385;23;20209;-92
2023/09/28 12:51:16;;;;;;;0.25;0.25;;;29.20;37.30;;;;;;6116806;23;20185;-89
2023/09/28 12:53:44;;;;;;;0.20;0.20;;;29.20;37.00;;;;;;6244182;23;20190;-89
2023/09/28 12:56:13;;;;;;;0.65;0.50;;;29.10;37.10;;;;;;6244237;23;20166;-89
2023/09/28 12:58:42;;;;;;;0.20;0.20;;;29.20;37.60;;;;;;6245352;23;20274;-89
2023/09/28 13:01:12;;;;;;;0.20;0.20;;;29.20;37.40;;;;;;6245517;23;20631;-87
2023/09/28 13:03:41;;;;;;;0.28;0.28;;;29.20;37.80;;;;;;6244803;23;20177;-89
2023/09/28 13:06:11;;;;;;;0.43;0.40;;;29.30;37.90;;;;;;6244453;23;20242;-87
2023/09/28 13:08:40;;;;;;;0.20;0.20;;;29.30;37.60;;;;;;6217774;23;20692;-92
2023/09/28 13:11:11;;;;;;;6.78;1.38;;;29.30;37.80;;;;;;6218501;23;20159;-93
2023/09/28 13:13:40;;;;;;;0.45;0.45;;;29.40;36.60;;;;;;6245855;23;20232;-90
2023/09/28 13:16:10;;;;;;;0.50;0.50;;;29.40;36.70;;;;;;6245030;23;20171;-89
2023/09/28 13:18:39;;;;;;;0.45;0.43;;;29.50;36.50;;;;;;6245532;23;20212;-94
2023/09/28 13:21:10;;;;;;;0.40;0.40;;;29.60;37.20;;;;;;6244364;23;20202;-91
2023/09/28 13:23:39;;;;;;;0.70;0.68;;;29.60;36.30;;;;;;6245837;23;20165;-91
2023/09/28 13:26:08;;;;;;;0.28;0.28;;;29.60;36.30;;;;;;6246595;23;20605;-87
2023/09/28 13:28:37;;;;;;;0.77;0.57;;;29.60;35.00;;;;;;6220397;23;20223;-94
2023/09/28 13:31:08;;;;;;;0.20;0.20;;;29.70;35.80;;;;;;6245477;23;20170;-91
2023/09/28 13:33:38;;;;;;;0.40;0.40;;;29.70;35.90;;;;;;6246012;23;20194;-88
2023/09/28 13:36:07;;;;;;;0.40;0.40;;;29.70;36.20;;;;;;6245055;23;20167;-92
2023/09/28 13:38:38;;;;;;;1.95;1.00;;;29.70;36.40;;;;;;6218050;23;20174;-90
2023/09/28 13:41:09;;;;;;;0.10;0.10;;;29.60;36.50;;;;;;6245756;23;20608;-89
2023/09/28 13:43:43;;;;;;;0.88;0.85;;;29.60;36.60;;;;;;6245465;23;20611;-90
2023/09/28 13:46:11;;;;;;;0.20;0.20;;;29.60;36.60;;;;;;6245120;23;20212;-89
2023/09/28 13:48:40;;;;;;;0.20;0.20;;;29.60;37.10;;;;;;6245101;23;20213;-95
2023/09/28 13:51:09;;;;;;;0.35;0.35;;;29.50;37.00;;;;;;6243999;23;20507;-88
2023/09/28 13:53:39;;;;;;;0.55;0.55;;;29.60;37.50;;;;;;6217716;23;20196;-90
2023/09/28 13:56:08;;;;;;;0.90;0.40;;;29.50;37.80;;;;;;6244427;23;20162;-88
2023/09/28 13:58:38;;;;;;;1.05;0.95;;;29.50;37.90;;;;;;6218422;23;20166;-89
2023/09/28 14:01:10;;;;;;;0.63;0.45;;;29.50;38.00;;;;;;6245590;23;20166;-89
2023/09/28 14:03:39;;;;;;;0.80;0.28;;;29.40;37.80;;;;;;6244081;23;20190;-90
2023/09/28 14:06:11;;;;;;;1.15;0.77;;;29.40;38.10;;;;;;6241276;23;20208;-88
2023/09/28 14:08:43;;;;;;;0.30;0.30;;;29.40;38.10;;;;;;6240928;23;20533;-88
2023/09/28 14:11:12;;;;;;;0.30;0.30;;;29.40;38.00;;;;;;6242541;23;20221;-88
2023/09/28 14:13:42;;;;;;;1.65;0.75;;;29.40;37.90;;;;;;6242672;23;20229;-86
2023/09/28 14:16:10;;;;;;;5.88;0.85;;;29.50;37.70;;;;;;6216417;23;20171;-86
2023/09/28 14:18:40;;;;;;;0.38;0.38;;;29.50;37.80;;;;;;6242179;23;20174;-90
2023/09/28 14:21:10;;;;;;;0.55;0.52;;;29.40;38.00;;;;;;6243007;23;20155;-88
2023/09/28 14:23:40;;;;;;;0.30;0.30;;;29.40;38.10;;;;;;6245410;23;20647;-88
2023/09/28 14:26:09;;;;;;;0.60;0.40;;;29.40;38.20;;;;;;6244841;23;20166;-88
2023/09/28 14:28:38;;;;;;;2.60;1.10;;;29.30;37.80;;;;;;6246632;23;20181;-89
2023/09/28 14:31:07;;;;;;;0.38;0.38;;;29.20;37.80;;;;;;6246063;23;20175;-90
2023/09/28 14:33:38;;;;;;;0.22;0.22;;;29.20;37.90;;;;;;6242900;23;20253;-93
2023/09/28 14:36:09;;;;;;;0.30;0.30;;;29.20;38.10;;;;;;6242730;23;20159;-91
2023/09/28 14:38:38;;;;;;;1.10;0.35;;;29.10;38.10;;;;;;6217445;23;20505;-88
2023/09/28 14:41:08;;;;;;;0.43;0.40;;;29.00;38.00;;;;;;6245544;23;20173;-90
2023/09/28 14:43:37;;;;;;;1.27;0.95;;;29.00;38.40;;;;;;6245435;23;20201;-90
2023/09/28 14:46:09;;;;;;;0.22;0.22;;;28.90;37.60;;;;;;6243808;23;20601;-86
2023/09/28 14:48:38;;;;;;;0.43;0.43;;;28.90;37.90;;;;;;6242685;23;20170;-90
2023/09/28 14:51:07;;;;;;;0.55;0.55;;;28.80;37.80;;;;;;6219210;23;20500;-86
2023/09/28 14:53:36;;;;;;;1.45;0.88;;;28.70;37.50;;;;;;6218123;23;20662;-90
2023/09/28 14:56:05;;;;;;;0.85;0.70;;;28.60;37.70;;;;;;6244796;23;20500;-89
2023/09/28 14:58:36;;;;;;;1.85;0.57;;;28.70;38.10;;;;;;6220895;23;20236;-89
2023/09/28 15:01:04;;;;;;;0.40;0.40;;;28.60;38.30;;;;;;6246164;23;20194;-87
2023/09/28 15:03:34;;;;;;;11.93;2.08;;;28.60;38.80;;;;;;6246785;23;20205;-91
2023/09/28 15:06:03;;;;;;;0.88;0.85;;;28.50;38.90;;;;;;6244254;23;20173;-90
2023/09/28 15:08:32;;;;;;;0.63;0.63;;;28.50;39.20;;;;;;6242817;23;20163;-87
2023/09/28 15:11:01;;;;;;;0.30;0.30;;;28.50;39.40;;;;;;6217168;23;20175;-88
2023/09/28 15:13:32;;;;;;;1.27;0.85;;;28.40;39.00;;;;;;6219353;23;20201;-89
2023/09/28 15:16:02;;;;;;;0.70;0.70;;;28.30;38.90;;;;;;6243480;23;20174;-89
2023/09/28 15:18:30;;;;;;;0.20;0.20;;;28.30;38.90;;;;;;6245736;23;20254;-90
2023/09/28 15:21:00;;;;;;;0.55;0.52;;;28.20;38.70;;;;;;6218062;23;20182;-93
2023/09/28 15:23:29;;;;;;;0.20;0.20;;;28.10;38.70;;;;;;6247471;23;20198;-93
2023/09/28 15:26:02;;;;;;;0.65;0.65;;;28.10;38.90;;;;;;6245348;23;20224;-90
2023/09/28 15:28:32;;;;;;;1.60;0.50;;;28.00;38.90;;;;;;6247623;23;20170;-90
2023/09/28 15:31:02;;;;;;;0.75;0.65;;;28.00;38.80;;;;;;6246497;23;20178;-89
2023/09/28 15:33:30;;;;;;;0.30;0.20;;;27.90;38.90;;;;;;6247313;23;20500;-90
2023/09/28 15:35:59;;;;;;;0.20;0.20;;;27.90;39.00;;;;;;6218130;23;20202;-90
2023/09/28 15:38:28;;;;;;;0.73;0.60;;;27.80;38.90;;;;;;6246456;23;20167;-93
2023/09/28 15:40:57;;;;;;;0.40;0.40;;;27.70;38.80;;;;;;6220751;23;20181;-92
2023/09/28 15:43:28;;;;;;;1.50;0.73;;;27.70;39.20;;;;;;6247115;23;20194;-90
2023/09/28 15:45:57;;;;;;;0.60;0.30;;;27.70;39.20;;;;;;6245676;23;20921;-87
2023/09/28 15:48:28;;;;;;;1.08;0.95;;;27.60;39.20;;;;;;6220490;23;20203;-91
2023/09/28 15:50:56;;;;;;;0.95;0.63;;;27.60;39.30;;;;;;6220814;23;20167;-91
2023/09/28 15:53:25;;;;;;;0.47;0.47;;;27.50;39.40;;;;;;6246816;23;20190;-94
2023/09/28 15:55:57;;;;;;;0.20;0.20;;;27.50;39.50;;;;;;6246584;23;20166;-92
2023/09/28 15:58:26;;;;;;;0.65;0.60;;;27.40;39.60;;;;;;6222206;23;20609;-94
2023/09/28 16:00:55;;;;;;;0.30;0.30;;;27.30;39.70;;;;;;6246506;23;20166;-93
2023/09/28 16:03:24;;;;;;;0.45;0.45;;;27.30;39.90;;;;;;6247163;23;20265;-93
2023/09/28 16:05:58;;;;;;;0.30;0.30;;;27.30;40.00;;;;;;6246562;23;20220;-92
2023/09/28 16:08:27;;;;;;;0.30;0.30;;;27.20;40.00;;;;;;6248882;23;20222;-91
2023/09/28 16:10:57;;;;;;;1.00;0.32;;;27.10;40.10;;;;;;6247293;23;20177;-92
2023/09/28 16:13:28;;;;;;;0.20;0.20;;;27.10;40.20;;;;;;6249267;23;20529;-94
2023/09/28 16:15:57;;;;;;;0.30;0.30;;;27.00;40.30;;;;;;6245535;23;20173;-93
2023/09/28 16:18:26;;;;;;;0.30;0.30;;;27.00;40.40;;;;;;6248601;23;20224;-93
2023/09/28 16:20:56;;;;;;;0.40;0.40;;;26.90;40.40;;;;;;6246414;23;20630;-89
2023/09/28 16:23:25;;;;;;;0.20;0.20;;;26.80;40.50;;;;;;6249219;23;20193;-93
2023/09/28 16:25:55;;;;;;;0.38;0.38;;;26.80;40.60;;;;;;6247210;23;20201;-95
2023/09/28 16:28:23;;;;;;;0.28;0.28;;;26.80;40.70;;;;;;6247813;23;20494;-92
2023/09/28 16:30:54;;;;;;;0.30;0.30;;;26.70;40.80;;;;;;6246584;23;20201;-93
2023/09/28 16:33:23;;;;;;;0.55;0.50;;;26.70;40.90;;;;;;6249457;23;20151;-94
2023/09/28 16:35:52;;;;;;;0.35;0.35;;;26.60;40.80;;;;;;6249173;23;20169;-93